x

Dunkirk, Ny (dbln6) Weather Station

5:00pm - Mon 4th May 2015 All times are CDT. -5 hours from GMT.

  • Wind
    18mph, 22mph gusts
  • Air Temp 56°f
  • Sea Pressure 1019.6mb
  • Dunkirk, Ny
  • Dunkirk, Ny

More Historic Weather Station data

Upgrade to MSW Pro to gain access to the past 30 days of data for over 8000 Wavebouys and Weather Stations around the globe.

Join Pro

Comparision Forecast

View Surf forecast
   
Mon 05/04 5:00pm 18 22 mph 1019.6mb 56f
4:00pm 23 25 mph 1018.6mb 58f
3:00pm 25 31 mph 1018.2mb 57f
2:00pm 18 23 mph 1018.1mb 56f
1:00pm 17 20 mph 1017.7mb 56f
12:00pm 18 20 mph 1017.6mb 60f
11:00am 21 22 mph 1018mb 60f
10:00am 18 24 mph 1018.2mb 68f
9:00am 13 16 mph 1018.6mb 73f
8:00am 6 8 mph 1019.3mb 71f
7:00am 6 11 mph 1019.4mb 68f
6:00am 5 7 mph 1019.1mb 64f
5:00am 6 7 mph 1018.7mb 62f
4:00am 6 7 mph 1018.6mb 62f
3:00am 7 9 mph 1018.6mb 62f
2:00am 8 10 mph 1018.6mb 63f
1:00am 8 10 mph 1018.4mb 64f
12:00am 7
mph
1018.6mb 65f
Sun 05/03 11:00pm 10 11 mph 1018.3mb 64f
10:00pm 8 10 mph 1018.6mb 65f
9:00pm 5 7 mph 1018.8mb 66f
8:00pm 5 6 mph 1018.5mb 67f
7:00pm 6
mph
1018.2mb 67f
6:00pm 7 8 mph 1018.1mb 65f
5:00pm 14 15 mph 1018.2mb 55f
4:00pm 13 14 mph 1018.1mb 58f
3:00pm 14 15 mph 1018.4mb 57f
2:00pm 14 15 mph 1018.8mb 56f
1:00pm 15 16 mph 1018.8mb 57f
12:00pm 16 17 mph 1018.9mb 57f
11:00am 16 18 mph 1018.9mb 56f
10:00am 14 16 mph 1018.8mb 57f
9:00am 9 10 mph 1018.6mb 60f
8:00am 10 13 mph 1018.4mb 64f
7:00am 6 8 mph 1018.3mb 60f
6:00am 10 13 mph 1017.5mb 55f
5:00am 10 13 mph 1016.9mb 54f
4:00am 9 11 mph 1016.7mb 55f
3:00am 9 10 mph 1016.6mb 56f
2:00am 8 10 mph 1016.5mb 56f
1:00am 8 11 mph 1016.5mb 57f
12:00am 7 9 mph 1016.6mb 58f
Sat 05/02 11:00pm 5 7 mph 1016.7mb 58f
10:00pm 5 6 mph 1016.8mb 58f
9:00pm 2 3 mph 1017mb 60f
8:00pm 7 8 mph 1016.6mb 55f
7:00pm 9 10 mph 1016.6mb 52f
6:00pm 11
mph
1016.7mb 52f
5:00pm 7 8 mph 1016.9mb 52f
4:00pm 10 11 mph 1017mb 50f
3:00pm 10 11 mph 1017.6mb 51f
2:00pm 11 13 mph 1018mb 49f
1:00pm 9 10 mph 1018.4mb 47f
12:00pm 10 13 mph 1018.7mb 45f
11:00am 9 10 mph 1019mb 46f
10:00am 8 9 mph 1019.1mb 47f
9:00am 9 10 mph 1018.7mb 48f
8:00am 11 13 mph 1018.9mb 46f
7:00am 8 9 mph 1018.7mb 45f
6:00am 7 8 mph 1018.2mb 46f
5:00am 2
mph
1017.6mb 45f
4:00am 2 3 mph 1017.3mb 47f
3:00am 9 10 mph 1017.3mb 46f
2:00am 5 6 mph 1017.3mb 47f
1:00am 2 3 mph 1017mb 52f
12:00am 6 7 mph 1017.1mb 52f
Fri 05/01 11:00pm 7 9 mph 1017.2mb 52f
10:00pm 7 9 mph 1017.2mb 50f
9:00pm 13 15 mph 1017.2mb 49f
8:00pm 16 17 mph 1016.6mb 49f
7:00pm 16 18 mph 1016.1mb 50f
6:00pm 16 18 mph 1016mb 49f
5:00pm 15 16 mph 1015.9mb 48f
4:00pm 13 15 mph 1016.1mb 47f
3:00pm 10 13 mph 1016.5mb 46f
2:00pm 10 13 mph 1016.7mb 49f
1:00pm 10 11 mph 1017mb 47f
12:00pm 7 9 mph 1017.3mb 46f
11:00am 6 8 mph 1017.3mb 45f
10:00am 7 8 mph 1017.3mb 44f
9:00am 6 7 mph 1017.4mb 45f
8:00am 2 3 mph 1017.1mb 45f
7:00am 6
mph
1016.7mb 41f
6:00am  -  1 mph 1015.9mb 40f
5:00am 6 7 mph 1015.2mb 41f
4:00am 3 5 mph 1014.7mb 40f
3:00am 1
mph
1014.2mb 41f
2:00am 3
mph
1014mb 41f
1:00am  -  1 mph 1013.9mb 45f
12:00am 1 2 mph 1014mb 45f